createdAt,value
2022-12-29T00:01:56.937Z,96610.03
2022-12-29T00:04:03.285Z,96612.63
2022-12-29T00:06:09.180Z,96617.63
2022-12-29T00:08:14.875Z,96619.75
2022-12-29T00:10:23.596Z,96610.88
2022-12-29T00:12:55.451Z,96603.56
2022-12-29T00:15:13.926Z,96605.72
2022-12-29T00:17:22.786Z,96594.94
2022-12-29T00:19:44.406Z,96601.56
2022-12-29T00:22:02.169Z,96601.31
2022-12-29T00:24:22.017Z,96604.97
2022-12-29T00:26:42.939Z,96591.88
2022-12-29T00:29:02.642Z,96599.75
2022-12-29T00:31:28.756Z,96599.75
2022-12-29T00:33:49.346Z,96594.75
2022-12-29T00:36:03.734Z,96592.38
2022-12-29T00:38:25.088Z,96590.78
2022-12-29T00:40:43.512Z,96588.72
2022-12-29T00:43:04.054Z,96599.75
2022-12-29T00:45:11.156Z,96589.28
2022-12-29T00:47:17.026Z,96596.06
2022-12-29T00:49:34.039Z,96591.09
2022-12-29T00:51:40.707Z,96598.94
2022-12-29T00:53:46.198Z,96597.38
2022-12-29T00:55:51.882Z,96594.75
2022-12-29T00:57:59.939Z,96595.28
2022-12-29T01:00:06.209Z,96595.84
2022-12-29T01:02:14.373Z,96592.66
2022-12-29T01:04:20.210Z,96592.19
2022-12-29T01:06:26.634Z,96601.09
2022-12-29T01:08:32.809Z,96607.09
2022-12-29T01:10:35.889Z,96602.41
2022-12-29T01:12:46.422Z,96597.13
2022-12-29T01:14:54.519Z,96603.47
2022-12-29T01:17:00.510Z,96602.66
2022-12-29T01:19:06.181Z,96599.78
2022-12-29T01:21:14.433Z,96601.38
2022-12-29T01:23:20.827Z,96599.00
2022-12-29T01:25:26.123Z,96602.97
2022-12-29T01:27:31.472Z,96604.78
2022-12-29T01:29:37.985Z,96601.38
2022-12-29T01:31:46.894Z,96601.38
2022-12-29T01:33:52.284Z,96603.22
2022-12-29T01:35:57.622Z,96595.03
2022-12-29T01:38:03.169Z,96594.50
2022-12-29T01:40:10.147Z,96599.50
2022-12-29T01:42:21.646Z,96604.16
2022-12-29T01:44:52.436Z,96597.63
2022-12-29T01:47:00.545Z,96596.03
2022-12-29T01:49:15.127Z,96585.81
2022-12-29T01:51:21.493Z,96584.47
2022-12-29T01:53:33.219Z,96583.34
2022-12-29T01:55:44.459Z,96583.06
2022-12-29T01:57:55.949Z,96575.97
2022-12-29T02:00:05.726Z,96581.19
2022-12-29T02:02:21.533Z,96576.19
2022-12-29T02:04:30.619Z,96581.69
2022-12-29T02:06:45.345Z,96573.75
2022-12-29T02:08:54.471Z,96571.38
2022-12-29T02:11:04.689Z,96568.69
2022-12-29T02:13:13.139Z,96573.69
2022-12-29T02:15:20.397Z,96569.75
2022-12-29T02:17:48.351Z,96569.41
2022-12-29T02:20:37.220Z,96564.19
2022-12-29T02:23:04.672Z,96568.88
2022-12-29T02:25:41.561Z,96564.44
2022-12-29T02:28:17.193Z,96566.28
2022-12-29T02:31:02.424Z,96562.06
2022-12-29T02:33:24.517Z,96558.91
2022-12-29T02:35:40.209Z,96561.03
2022-12-29T02:37:56.158Z,96560.78
2022-12-29T02:40:16.648Z,96554.28
2022-12-29T02:42:31.780Z,96557.19
2022-12-29T02:44:51.607Z,96558.56
2022-12-29T02:47:13.350Z,96561.69
2022-12-29T02:49:24.040Z,96557.81
2022-12-29T02:51:37.273Z,96557.06
2022-12-29T02:53:55.810Z,96560.25
2022-12-29T02:56:01.560Z,96557.16
2022-12-29T02:58:26.447Z,96548.50
2022-12-29T03:00:32.608Z,96551.09
2022-12-29T03:03:15.899Z,96551.34
2022-12-29T03:05:59.964Z,96552.66
2022-12-29T03:08:22.303Z,96553.69
2022-12-29T03:10:41.405Z,96550.50
2022-12-29T03:13:09.893Z,96547.34
2022-12-29T03:15:38.203Z,96552.56
2022-12-29T03:17:58.431Z,96542.13
2022-12-29T03:20:11.195Z,96542.13
2022-12-29T03:22:35.711Z,96530.63
2022-12-29T03:24:53.888Z,96533.53
2022-12-29T03:27:05.434Z,96536.72
2022-12-29T03:29:17.997Z,96527.56
2022-12-29T03:31:28.588Z,96546.13
2022-12-29T03:33:38.805Z,96539.31
2022-12-29T03:35:47.973Z,96540.34
2022-12-29T03:38:03.229Z,96533.03
2022-12-29T03:40:10.830Z,96535.41
2022-12-29T03:42:21.762Z,96534.94
2022-12-29T03:44:37.829Z,96539.13
2022-12-29T03:46:43.777Z,96535.47
2022-12-29T03:48:52.367Z,96538.09
2022-12-29T03:50:57.986Z,96546.47
2022-12-29T03:53:03.460Z,96537.34
2022-12-29T03:55:11.440Z,96537.91
2022-12-29T03:57:18.415Z,96536.06
2022-12-29T03:59:32.378Z,96529.56
2022-12-29T04:01:37.940Z,96529.84
2022-12-29T04:03:43.611Z,96530.41
2022-12-29T04:05:53.841Z,96533.31
2022-12-29T04:08:01.087Z,96533.31
2022-12-29T04:10:07.418Z,96537.53
2022-12-29T04:12:14.714Z,96532.53
2022-12-29T04:14:21.207Z,96536.47
2022-12-29T04:16:26.858Z,96538.06
2022-12-29T04:18:32.335Z,96529.19
2022-12-29T04:20:50.677Z,96526.84
2022-12-29T04:23:04.580Z,96535.50
2022-12-29T04:25:12.769Z,96528.19
2022-12-29T04:27:18.167Z,96522.94
2022-12-29T04:29:47.611Z,96519.53
2022-12-29T04:32:10.824Z,96522.94
2022-12-29T04:34:22.073Z,96527.94
2022-12-29T04:36:30.240Z,96521.09
2022-12-29T04:38:38.879Z,96513.25
2022-12-29T04:40:46.433Z,96518.50
2022-12-29T04:42:52.312Z,96510.16
2022-12-29T04:44:59.584Z,96505.72
2022-12-29T04:47:15.730Z,96508.59
2022-12-29T04:49:42.569Z,96505.75
2022-12-29T04:52:20.059Z,96502.09
2022-12-29T04:54:28.391Z,96500.81
2022-12-29T04:56:53.937Z,96503.19
2022-12-29T04:58:59.512Z,96500.56
2022-12-29T05:01:05.995Z,96503.22
2022-12-29T05:03:11.765Z,96498.53
2022-12-29T05:05:20.308Z,96504.84
2022-12-29T05:07:28.924Z,96493.31
2022-12-29T05:09:37.789Z,96501.47
2022-12-29T05:11:44.112Z,96514.56
2022-12-29T05:13:50.256Z,96512.78
2022-12-29T05:15:57.867Z,96511.25
2022-12-29T05:18:03.694Z,96515.75
2022-12-29T05:20:11.634Z,96515.25
2022-12-29T05:22:17.195Z,96517.09
2022-12-29T05:24:24.720Z,96521.59
2022-12-29T05:26:38.417Z,96519.53
2022-12-29T05:28:49.603Z,96519.00
2022-12-29T05:30:58.637Z,96509.84
2022-12-29T05:33:04.098Z,96511.44
2022-12-29T05:35:11.304Z,96506.75
2022-12-29T05:37:17.087Z,96514.09
2022-12-29T05:39:23.877Z,96503.34
2022-12-29T05:41:34.230Z,96507.31
2022-12-29T05:43:57.261Z,96502.84
2022-12-29T05:46:21.453Z,96501.00
2022-12-29T05:48:45.551Z,96497.09
2022-12-29T05:51:00.291Z,96501.31
2022-12-29T05:53:16.076Z,96506.56
2022-12-29T05:55:23.941Z,96504.72
2022-12-29T05:57:31.833Z,96509.69
2022-12-29T05:59:49.652Z,96501.84
2022-12-29T06:01:55.142Z,96507.38
2022-12-29T06:04:01.550Z,96505.53
2022-12-29T06:06:08.140Z,96507.91
2022-12-29T06:08:13.733Z,96507.13
2022-12-29T06:10:19.972Z,96499.25
2022-12-29T06:12:40.286Z,96499.00
2022-12-29T06:14:48.163Z,96502.41
2022-12-29T06:16:53.574Z,96507.38
2022-12-29T06:19:00.545Z,96507.94
2022-12-29T06:21:07.829Z,96496.91
2022-12-29T06:23:13.148Z,96509.50
2022-12-29T06:25:19.308Z,96508.72
2022-12-29T06:27:25.937Z,96508.22
2022-12-29T06:29:32.790Z,96496.94
2022-12-29T06:31:40.873Z,96501.69
2022-12-29T06:33:49.828Z,96498.00
2022-12-29T06:35:56.015Z,96502.75
2022-12-29T06:38:01.358Z,96501.44
2022-12-29T06:40:07.270Z,96514.53
2022-12-29T06:42:29.226Z,96510.63
2022-12-29T06:44:52.021Z,96514.28
2022-12-29T06:47:00.235Z,96522.19
2022-12-29T06:49:05.956Z,96517.72
2022-12-29T06:51:11.315Z,96515.19
2022-12-29T06:53:16.676Z,96512.28
2022-12-29T06:55:22.348Z,96513.06
2022-12-29T06:57:27.799Z,96521.50
2022-12-29T06:59:33.166Z,96517.81
2022-12-29T07:01:38.857Z,96511.53
2022-12-29T07:03:48.329Z,96518.09
2022-12-29T07:05:55.282Z,96511.25
2022-12-29T07:08:01.035Z,96522.84
2022-12-29T07:10:07.721Z,96521.53
2022-12-29T07:12:13.098Z,96526.28
2022-12-29T07:14:18.659Z,96521.03
2022-12-29T07:16:24.115Z,96533.13
2022-12-29T07:18:29.394Z,96537.06
2022-12-29T07:20:37.610Z,96535.78
2022-12-29T07:22:42.996Z,96550.19
2022-12-29T07:24:48.350Z,96545.50
2022-12-29T07:26:53.657Z,96550.50
2022-12-29T07:28:59.641Z,96549.19
2022-12-29T07:31:05.384Z,96546.31
2022-12-29T07:33:10.859Z,96541.59
2022-12-29T07:35:16.216Z,96555.50
2022-12-29T07:37:25.836Z,96558.41
2022-12-29T07:39:31.143Z,96550.00
2022-12-29T07:41:36.476Z,96560.81
2022-12-29T07:43:41.823Z,96563.94
2022-12-29T07:46:14.572Z,96560.03
2022-12-29T07:48:37.126Z,96564.50
2022-12-29T07:50:42.589Z,96570.53
2022-12-29T07:52:51.066Z,96567.13
2022-12-29T07:54:56.681Z,96574.47
2022-12-29T07:57:05.467Z,96577.91
2022-12-29T07:59:11.295Z,96573.72
2022-12-29T08:01:16.723Z,96571.88
2022-12-29T08:03:22.143Z,96548.78
2022-12-29T08:05:27.947Z,96552.44
2022-12-29T08:07:34.163Z,96559.25
2022-12-29T08:09:42.786Z,96561.88
2022-12-29T08:11:48.628Z,96563.69
2022-12-29T08:13:54.709Z,96552.66
2022-12-29T08:16:02.616Z,96553.97
2022-12-29T08:18:08.570Z,96561.56
2022-12-29T08:20:14.768Z,96560.81
2022-12-29T08:22:20.705Z,96559.22
2022-12-29T08:24:26.673Z,96558.44
2022-12-29T08:26:35.090Z,96557.41
2022-12-29T08:28:40.861Z,96564.75
2022-12-29T08:30:46.713Z,96560.81
2022-12-29T08:32:52.689Z,96552.44
2022-12-29T08:34:58.775Z,96551.66
2022-12-29T08:37:16.772Z,96557.16
2022-12-29T08:39:22.599Z,96556.66
2022-12-29T08:41:28.955Z,96552.47
2022-12-29T08:43:37.673Z,96547.50
2022-12-29T08:45:50.387Z,96545.13
2022-12-29T08:48:45.190Z,96543.56
2022-12-29T08:50:51.443Z,96545.41
2022-12-29T08:52:56.867Z,96543.31
2022-12-29T08:55:02.369Z,96553.03
2022-12-29T08:57:09.248Z,96552.53
2022-12-29T08:59:24.181Z,96563.28
2022-12-29T09:01:31.635Z,96566.19
2022-12-29T09:04:12.707Z,96569.06
2022-12-29T09:06:03.708Z,96558.31
2022-12-29T09:08:09.536Z,96551.22
2022-12-29T09:10:15.342Z,96565.94
2022-12-29T09:12:21.968Z,96564.09
2022-12-29T09:14:30.299Z,96565.66
2022-12-29T09:16:36.144Z,96564.31
2022-12-29T09:18:42.960Z,96576.44
2022-12-29T09:20:48.674Z,96565.66
2022-12-29T09:22:54.933Z,96571.44
2022-12-29T09:25:00.584Z,96574.31
2022-12-29T09:27:06.310Z,96567.44
2022-12-29T09:29:11.623Z,96569.53
2022-12-29T09:31:19.568Z,96569.53
2022-12-29T09:33:25.134Z,96578.69
2022-12-29T09:35:30.444Z,96571.31
2022-12-29T09:37:36.647Z,96576.81
2022-12-29T09:39:42.055Z,96566.75
2022-12-29T09:41:56.314Z,96569.09
2022-12-29T09:44:17.092Z,96567.75
2022-12-29T09:46:31.248Z,96555.56
2022-12-29T09:48:44.515Z,96557.84
2022-12-29T09:50:59.507Z,96546.22
2022-12-29T09:53:13.760Z,96565.34
2022-12-29T09:55:22.927Z,96571.59
2022-12-29T09:57:36.407Z,96573.69
2022-12-29T09:59:47.351Z,96571.84
2022-12-29T10:02:07.342Z,96570.03
2022-12-29T10:04:13.562Z,96576.59
2022-12-29T10:06:27.932Z,96579.03
2022-12-29T10:08:45.896Z,96565.59
2022-12-29T10:11:00.409Z,96567.16
2022-12-29T10:13:28.929Z,96566.66
2022-12-29T10:15:51.768Z,96570.91
2022-12-29T10:18:22.473Z,96563.81
2022-12-29T10:20:37.762Z,96572.72
2022-12-29T10:22:57.425Z,96562.94
2022-12-29T10:25:15.024Z,96560.03
2022-12-29T10:30:24.834Z,96559.19
2022-12-29T10:32:39.287Z,96550.50
2022-12-29T10:34:55.661Z,96555.22
2022-12-29T10:37:09.354Z,96554.69
2022-12-29T10:39:26.001Z,96545.72
2022-12-29T10:41:41.996Z,96554.41
2022-12-29T10:43:52.426Z,96549.13
2022-12-29T10:46:03.142Z,96547.03
2022-12-29T10:48:19.536Z,96550.72
2022-12-29T10:50:30.522Z,96540.16
2022-12-29T10:52:41.827Z,96547.78
2022-12-29T10:54:55.513Z,96532.50
2022-12-29T10:57:07.472Z,96528.50
2022-12-29T10:59:22.436Z,96536.69
2022-12-29T11:01:41.051Z,96521.09
2022-12-29T11:04:04.608Z,96516.56
2022-12-29T11:06:17.261Z,96519.44
2022-12-29T11:08:29.124Z,96516.97
2022-12-29T11:10:42.245Z,96512.66
2022-12-29T11:13:03.448Z,96510.97
2022-12-29T11:15:20.315Z,96510.84
2022-12-29T11:17:25.741Z,96512.13
2022-12-29T11:19:40.539Z,96502.00
2022-12-29T11:21:48.720Z,96504.28
2022-12-29T11:24:03.797Z,96506.88
2022-12-29T11:26:27.669Z,96513.16
2022-12-29T11:28:35.535Z,96514.44
2022-12-29T11:30:40.910Z,96518.38
2022-12-29T11:32:56.334Z,96516.50
2022-12-29T11:35:02.821Z,96521.22
2022-12-29T11:37:17.593Z,96515.41
2022-12-29T11:39:37.833Z,96508.75
2022-12-29T11:41:43.458Z,96510.31
2022-12-29T11:43:49.580Z,96506.09
2022-12-29T11:45:57.748Z,96497.97
2022-12-29T11:48:10.678Z,96517.03
2022-12-29T11:50:24.540Z,96499.41
2022-12-29T11:52:40.469Z,96497.03
2022-12-29T11:54:47.276Z,96495.16
2022-12-29T11:56:54.948Z,96492.03
2022-12-29T11:59:00.332Z,96493.59
2022-12-29T12:01:10.893Z,96494.41
2022-12-29T12:03:24.939Z,96497.81
2022-12-29T12:05:42.466Z,96497.25
2022-12-29T12:07:56.053Z,96492.16
2022-12-29T12:10:08.789Z,96489.19
2022-12-29T12:12:29.317Z,96483.34
2022-12-29T12:14:42.399Z,96482.75
2022-12-29T12:17:18.385Z,96483.47
2022-12-29T12:19:36.593Z,96470.97
2022-12-29T12:21:46.179Z,96470.63
2022-12-29T12:24:41.181Z,96470.06
2022-12-29T12:27:03.580Z,96469.78
2022-12-29T12:29:18.100Z,96468.41
2022-12-29T12:31:44.633Z,96460.22
2022-12-29T12:33:57.496Z,96458.28
2022-12-29T12:36:36.229Z,96462.91
2022-12-29T12:38:57.856Z,96463.03
2022-12-29T12:41:19.755Z,96454.19
2022-12-29T12:43:49.044Z,96458.72
2022-12-29T12:46:14.355Z,96450.59
2022-12-29T12:48:49.291Z,96457.59
2022-12-29T12:51:09.391Z,96453.19
2022-12-29T12:53:37.941Z,96441.13
2022-12-29T12:56:26.559Z,96443.69
2022-12-29T12:58:43.971Z,96443.09
2022-12-29T13:01:08.196Z,96436.72
2022-12-29T13:03:27.810Z,96439.84
2022-12-29T13:06:01.082Z,96431.63
2022-12-29T13:08:43.879Z,96441.13
2022-12-29T13:11:02.149Z,96438.00
2022-12-29T13:13:42.030Z,96435.06
2022-12-29T13:15:59.232Z,96440.06
2022-12-29T13:18:21.235Z,96438.19
2022-12-29T13:20:43.734Z,96430.72
2022-12-29T13:22:59.415Z,96428.09
2022-12-29T13:25:31.354Z,96434.47
2022-12-29T13:27:48.487Z,96432.13
2022-12-29T13:30:06.535Z,96431.31
2022-12-29T13:32:31.289Z,96433.50
2022-12-29T13:34:49.709Z,96433.28
2022-12-29T13:37:00.870Z,96434.38
2022-12-29T13:39:20.639Z,96443.97
2022-12-29T13:41:34.805Z,96441.13
2022-12-29T13:43:47.884Z,96435.34
2022-12-29T13:46:06.139Z,96437.22
2022-12-29T13:48:21.139Z,96434.88
2022-12-29T13:50:31.152Z,96436.72
2022-12-29T13:52:48.312Z,96435.16
2022-12-29T13:55:22.580Z,96445.53
2022-12-29T13:57:45.225Z,96446.59
2022-12-29T14:00:00.161Z,96438.97
2022-12-29T14:02:24.877Z,96446.91
2022-12-29T14:04:34.230Z,96453.75
2022-12-29T14:06:41.872Z,96462.00
2022-12-29T14:08:48.304Z,96451.91
2022-12-29T14:10:56.449Z,96450.81
2022-12-29T14:13:10.464Z,96456.13
2022-12-29T14:15:27.473Z,96448.19
2022-12-29T14:17:35.397Z,96446.31
2022-12-29T14:19:45.028Z,96448.66
2022-12-29T14:21:58.541Z,96451.81
2022-12-29T14:24:46.919Z,96455.53
2022-12-29T14:26:52.403Z,96448.66
2022-12-29T14:29:03.009Z,96441.53
2022-12-29T14:31:42.556Z,96452.69
2022-12-29T14:34:35.249Z,96455.13
2022-12-29T14:36:43.972Z,96449.34
2022-12-29T14:38:51.086Z,96447.78
2022-12-29T14:41:20.959Z,96444.84
2022-12-29T14:43:31.108Z,96454.13
2022-12-29T14:45:38.775Z,96447.59
2022-12-29T14:47:51.424Z,96449.72
2022-12-29T14:49:58.427Z,96446.59
2022-12-29T14:52:19.393Z,96445.59
2022-12-29T14:54:50.333Z,96448.31
2022-12-29T14:56:55.984Z,96445.19
2022-12-29T14:59:05.812Z,96455.28
2022-12-29T15:01:40.735Z,96458.22
2022-12-29T15:03:55.504Z,96458.00
2022-12-29T15:06:10.612Z,96463.28
2022-12-29T15:08:20.025Z,96474.16
2022-12-29T15:10:27.890Z,96461.53
2022-12-29T15:12:44.458Z,96468.69
2022-12-29T15:14:55.887Z,96468.69
2022-12-29T15:17:01.700Z,96475.81
2022-12-29T15:19:26.667Z,96472.69
2022-12-29T15:21:37.300Z,96479.03
2022-12-29T15:23:42.819Z,96475.91
2022-12-29T15:25:59.399Z,96471.69
2022-12-29T15:28:09.985Z,96464.03
2022-12-29T15:30:18.913Z,96469.63
2022-12-29T15:32:27.043Z,96460.13
2022-12-29T15:34:36.624Z,96461.47
2022-12-29T15:36:44.919Z,96465.22
2022-12-29T15:38:51.166Z,96460.22
2022-12-29T15:41:00.157Z,96469.78
2022-12-29T15:43:37.069Z,96464.28
2022-12-29T15:45:45.043Z,96474.63
2022-12-29T15:47:53.924Z,96472.84
2022-12-29T15:50:09.131Z,96474.19
2022-12-29T15:52:17.138Z,96476.34
2022-12-29T15:54:26.971Z,96472.13
2022-12-29T15:56:35.073Z,96469.78
2022-12-29T15:58:48.732Z,96473.47
2022-12-29T16:00:57.867Z,96471.13
2022-12-29T16:03:07.123Z,96463.47
2022-12-29T16:05:20.813Z,96472.75
2022-12-29T16:07:37.289Z,96480.19
2022-12-29T16:09:48.636Z,96470.22
2022-12-29T16:11:59.733Z,96480.25
2022-12-29T16:14:10.755Z,96479.00
2022-12-29T16:16:24.248Z,96477.19
2022-12-29T16:18:36.628Z,96488.31
2022-12-29T16:20:46.473Z,96477.56
2022-12-29T16:22:56.507Z,96481.25
2022-12-29T16:25:07.643Z,96484.97
2022-12-29T16:27:24.308Z,96487.13
2022-12-29T16:29:31.701Z,96494.25
2022-12-29T16:31:51.807Z,96491.91
2022-12-29T16:33:59.079Z,96490.31
2022-12-29T16:36:26.762Z,96492.44
2022-12-29T16:38:37.224Z,96490.09
2022-12-29T16:40:52.835Z,96499.09
2022-12-29T16:43:04.850Z,96492.53
2022-12-29T16:46:26.330Z,96492.81
2022-12-29T16:48:36.438Z,96502.84
2022-12-29T16:50:45.658Z,96504.44
2022-12-29T16:52:53.969Z,96502.84
2022-12-29T16:55:04.578Z,96503.94
2022-12-29T16:57:12.941Z,96512.44
2022-12-29T16:59:36.347Z,96512.72
2022-12-29T17:01:43.220Z,96505.34
2022-12-29T17:03:54.221Z,96500.06
2022-12-29T17:05:59.412Z,96504.56
2022-12-29T17:08:23.852Z,96510.91
2022-12-29T17:10:49.910Z,96515.69
2022-12-29T17:12:55.191Z,96520.75
2022-12-29T17:15:03.552Z,96519.75
2022-12-29T17:17:17.152Z,96514.22
2022-12-29T17:19:29.035Z,96511.38
2022-12-29T17:21:34.277Z,96524.84
2022-12-29T17:23:42.313Z,96508.22
2022-12-29T17:25:47.671Z,96508.22
2022-12-29T17:27:59.572Z,96507.72
2022-12-29T17:30:09.198Z,96513.28
2022-12-29T17:32:17.933Z,96503.00
2022-12-29T17:34:23.705Z,96501.16
2022-12-29T17:36:28.972Z,96505.66
2022-12-29T17:38:38.859Z,96502.72
2022-12-29T17:40:47.126Z,96499.03
2022-12-29T17:42:56.750Z,96498.22
2022-12-29T17:45:03.987Z,96492.16
2022-12-29T17:47:09.224Z,96488.75
2022-12-29T17:49:18.288Z,96489.81
2022-12-29T17:51:25.520Z,96494.28
2022-12-29T17:53:33.523Z,96493.50
2022-12-29T17:55:38.961Z,96493.78
2022-12-29T17:57:47.014Z,96492.78
2022-12-29T17:59:52.483Z,96485.13
2022-12-29T18:01:57.915Z,96489.13
2022-12-29T18:04:03.123Z,96499.19
2022-12-29T18:06:10.567Z,96492.88
2022-12-29T18:08:16.452Z,96495.03
2022-12-29T18:10:22.929Z,96498.72
2022-12-29T18:12:36.348Z,96492.16
2022-12-29T18:14:44.663Z,96496.94
2022-12-29T18:16:50.569Z,96496.41
2022-12-29T18:18:56.415Z,96500.41
2022-12-29T18:21:03.689Z,96505.16
2022-12-29T18:23:09.544Z,96508.88
2022-12-29T18:25:28.598Z,96501.25
2022-12-29T18:27:34.339Z,96503.09
2022-12-29T18:29:40.519Z,96503.88
2022-12-29T18:31:48.456Z,96512.06
2022-12-29T18:33:56.114Z,96498.38
2022-12-29T18:36:04.402Z,96497.88
2022-12-29T18:38:09.935Z,96498.16
2022-12-29T18:40:16.829Z,96500.78
2022-12-29T18:42:22.465Z,96500.25
2022-12-29T18:44:28.373Z,96499.50
2022-12-29T18:46:34.412Z,96496.31
2022-12-29T18:48:42.783Z,96498.47
2022-12-29T18:50:49.164Z,96496.06
2022-12-29T18:53:00.076Z,96502.97
2022-12-29T18:55:17.205Z,96503.78
2022-12-29T18:57:22.457Z,96507.47
2022-12-29T18:59:28.135Z,96497.47
2022-12-29T19:01:33.649Z,96512.47
2022-12-29T19:03:41.617Z,96512.00
2022-12-29T19:05:50.071Z,96507.78
2022-12-29T19:07:56.588Z,96506.72
2022-12-29T19:10:02.974Z,96499.84
2022-12-29T19:12:09.014Z,96511.22
2022-12-29T19:14:19.483Z,96514.91
2022-12-29T19:16:27.172Z,96512.00
2022-12-29T19:19:00.896Z,96512.75
2022-12-29T19:21:01.482Z,96517.25
2022-12-29T19:23:10.181Z,96519.63
2022-12-29T19:25:15.769Z,96528.84
2022-12-29T19:27:21.071Z,96521.97
2022-12-29T19:29:26.270Z,96514.84
2022-12-29T19:31:32.061Z,96520.91
2022-12-29T19:33:37.384Z,96513.00
2022-12-29T19:35:42.819Z,96510.38
2022-12-29T19:37:51.084Z,96510.38
2022-12-29T19:39:57.532Z,96508.78
2022-12-29T19:42:05.607Z,96516.72
2022-12-29T19:44:11.206Z,96511.44
2022-12-29T19:46:22.093Z,96502.22
2022-12-29T19:48:27.320Z,96507.78
2022-12-29T19:50:32.834Z,96509.09
2022-12-29T19:52:39.068Z,96502.28
2022-12-29T19:54:46.836Z,96504.09
2022-12-29T19:56:52.121Z,96506.25
2022-12-29T19:58:57.790Z,96495.19
2022-12-29T20:01:09.076Z,96503.38
2022-12-29T20:03:14.800Z,96505.22
2022-12-29T20:05:20.262Z,96509.72
2022-12-29T20:07:27.070Z,96503.91
2022-12-29T20:09:32.278Z,96511.03
2022-12-29T20:11:40.512Z,96507.91
2022-12-29T20:13:47.303Z,96519.50
2022-12-29T20:15:52.824Z,96520.56
2022-12-29T20:18:14.805Z,96511.88
2022-12-29T20:20:20.669Z,96521.66
2022-12-29T20:22:26.183Z,96527.69
2022-12-29T20:24:32.177Z,96527.97
2022-12-29T20:26:39.970Z,96531.94
2022-12-29T20:28:45.483Z,96537.47
2022-12-29T20:31:00.049Z,96538.81
2022-12-29T20:33:08.422Z,96537.25
2022-12-29T20:35:16.993Z,96545.94
2022-12-29T20:37:23.666Z,96536.44
2022-12-29T20:39:29.059Z,96537.25
2022-12-29T20:41:34.331Z,96530.41
2022-12-29T20:43:42.839Z,96525.41
2022-12-29T20:45:48.250Z,96526.19
2022-12-29T20:47:53.475Z,96518.56
2022-12-29T20:49:58.721Z,96523.53
2022-12-29T20:52:07.043Z,96514.34
2022-12-29T20:54:13.853Z,96524.59
2022-12-29T20:56:23.060Z,96517.25
2022-12-29T20:58:28.281Z,96513.06
2022-12-29T21:00:36.459Z,96511.47
2022-12-29T21:02:41.965Z,96511.75
2022-12-29T21:05:21.966Z,96507.25
2022-12-29T21:07:19.612Z,96500.41
2022-12-29T21:09:25.551Z,96500.69
2022-12-29T21:11:31.921Z,96502.25
2022-12-29T21:13:37.618Z,96491.72
2022-12-29T21:15:45.562Z,96490.66
2022-12-29T21:17:51.306Z,96488.03
2022-12-29T21:19:56.767Z,96486.19
2022-12-29T21:22:02.137Z,96485.13
2022-12-29T21:24:08.078Z,96490.88
2022-12-29T21:26:15.998Z,96487.47
2022-12-29T21:28:21.711Z,96498.78
2022-12-29T21:30:26.930Z,96502.50
2022-12-29T21:32:35.596Z,96509.34
2022-12-29T21:34:41.068Z,96505.16
2022-12-29T21:36:46.312Z,96513.34
2022-12-29T21:38:51.594Z,96512.03
2022-12-29T21:40:56.771Z,96513.34
2022-12-29T21:43:02.380Z,96511.78
2022-12-29T21:45:22.608Z,96511.28
2022-12-29T21:47:48.449Z,96508.38
2022-12-29T21:49:56.321Z,96499.69
2022-12-29T21:52:01.583Z,96497.06
2022-12-29T21:54:19.549Z,96496.00
2022-12-29T21:56:26.666Z,96498.66
2022-12-29T21:58:44.391Z,96511.00
2022-12-29T22:01:02.214Z,96493.66
2022-12-29T22:03:23.457Z,96504.19
2022-12-29T22:05:44.338Z,96509.72
2022-12-29T22:08:01.980Z,96506.56
2022-12-29T22:10:21.102Z,96504.22
2022-12-29T22:12:39.136Z,96505.53
2022-12-29T22:14:44.526Z,96510.03
2022-12-29T22:16:49.711Z,96517.94
2022-12-29T22:18:55.422Z,96516.34
2022-12-29T22:21:07.271Z,96512.44
2022-12-29T22:23:12.723Z,96519.25
2022-12-29T22:25:18.555Z,96520.34
2022-12-29T22:27:23.871Z,96525.88
2022-12-29T22:29:29.128Z,96529.28
2022-12-29T22:31:34.602Z,96540.09
2022-12-29T22:33:39.847Z,96529.84
2022-12-29T22:35:45.338Z,96532.47
2022-12-29T22:37:53.495Z,96536.16
2022-12-29T22:39:59.883Z,96549.06
2022-12-29T22:42:05.360Z,96556.19
2022-12-29T22:44:10.984Z,96554.59
2022-12-29T22:46:16.222Z,96553.81
2022-12-29T22:48:21.854Z,96565.13
2022-12-29T22:50:27.135Z,96557.22
2022-12-29T22:52:32.452Z,96562.22
2022-12-29T22:54:40.463Z,96560.66
2022-12-29T22:56:45.954Z,96567.75
2022-12-29T22:58:52.162Z,96575.66
2022-12-29T23:00:57.965Z,96579.63
2022-12-29T23:03:04.191Z,96584.91
2022-12-29T23:05:10.451Z,96587.81
2022-12-29T23:07:15.673Z,96585.44
2022-12-29T23:09:24.630Z,96586.25
2022-12-29T23:11:33.300Z,96590.97
2022-12-29T23:13:39.182Z,96604.69
2022-12-29T23:15:45.212Z,96599.66
2022-12-29T23:17:50.781Z,96603.59
2022-12-29T23:19:56.294Z,96610.97
2022-12-29T23:22:01.979Z,96601.72
2022-12-29T23:24:08.093Z,96609.63
2022-12-29T23:26:13.567Z,96617.25
2022-12-29T23:28:21.513Z,96614.63
2022-12-29T23:30:26.801Z,96619.63
2022-12-29T23:32:32.255Z,96623.03
2022-12-29T23:34:37.761Z,96622.00
2022-12-29T23:36:44.067Z,96616.44
2022-12-29T23:38:49.482Z,96611.97
2022-12-29T23:40:54.772Z,96610.63
2022-12-29T23:43:00.105Z,96613.78
2022-12-29T23:45:10.200Z,96618.00
2022-12-29T23:47:15.938Z,96630.91
2022-12-29T23:49:21.373Z,96636.97
2022-12-29T23:51:27.355Z,96635.13
2022-12-29T23:53:32.608Z,96636.69
2022-12-29T23:55:37.876Z,96631.16
2022-12-29T23:57:43.145Z,96631.66
2022-12-29T23:59:48.690Z,96647.75
